createdAt,value
2018-11-22T00:04:42.241Z,18.10
2018-11-22T00:09:49.441Z,18.73
2018-11-22T00:12:17.015Z,15.77
2018-11-22T00:14:44.564Z,11.20
2018-11-22T00:19:51.971Z,19.70
2018-11-22T00:24:59.152Z,19.77
2018-11-22T00:40:55.926Z,19.43
2018-11-22T00:43:23.433Z,7.73
2018-11-22T00:48:39.994Z,17.20
2018-11-22T00:53:54.227Z,15.30
2018-11-22T01:04:28.117Z,16.33
2018-11-22T01:06:55.578Z,17.00
2018-11-22T01:12:05.268Z,17.80
2018-11-22T01:17:32.807Z,16.10
2018-11-22T01:20:00.656Z,13.47
2018-11-22T01:22:28.309Z,15.10
2018-11-22T01:24:55.806Z,19.40
2018-11-22T01:33:11.731Z,22.30
2018-11-22T01:38:18.961Z,17.93
2018-11-22T01:40:46.599Z,17.23
2018-11-22T01:43:14.042Z,15.30
2018-11-22T01:51:00.946Z,16.70
2018-11-22T01:53:28.679Z,12.00
2018-11-22T02:25:16.126Z,18.70
2018-11-22T02:30:30.752Z,12.17
2018-11-22T02:32:59.429Z,14.57
2018-11-22T02:35:27.828Z,18.67
2018-11-22T02:43:15.024Z,14.30
2018-11-22T02:51:09.095Z,19.57
2018-11-22T02:53:36.611Z,18.77
2018-11-22T02:56:04.157Z,16.20
2018-11-22T03:01:11.466Z,14.73
2018-11-22T03:03:38.972Z,16.93
2018-11-22T03:11:33.258Z,23.87
2018-11-22T03:16:40.518Z,14.87
2018-11-22T03:19:08.073Z,17.53
2018-11-22T03:21:35.519Z,25.30
2018-11-22T03:26:42.888Z,14.90
2018-11-22T03:29:10.754Z,20.60
2018-11-22T03:31:38.352Z,8.00
2018-11-22T03:34:05.935Z,24.03
2018-11-22T03:36:33.630Z,20.33
2018-11-22T03:39:01.151Z,22.33
2018-11-22T03:41:28.712Z,27.37
2018-11-22T03:46:35.963Z,17.37
2018-11-22T03:51:43.320Z,10.37
2018-11-22T03:54:10.938Z,25.77
2018-11-22T04:02:05.137Z,22.30
2018-11-22T04:04:33.275Z,21.33
2018-11-22T04:12:27.219Z,22.13
2018-11-22T04:14:54.996Z,19.43
2018-11-22T04:20:10.285Z,30.07
2018-11-22T04:22:37.776Z,20.70
2018-11-22T04:25:06.024Z,27.73
2018-11-22T04:27:33.684Z,32.33
2018-11-22T04:30:01.243Z,31.17
2018-11-22T04:32:28.796Z,34.83
2018-11-22T04:34:56.406Z,26.80
2018-11-22T04:40:12.275Z,33.63
2018-11-22T04:42:39.826Z,32.67
2018-11-22T04:45:07.867Z,30.93
2018-11-22T04:50:23.351Z,23.13
2018-11-22T04:52:51.247Z,31.80
2018-11-22T04:57:58.599Z,37.90
2018-11-22T05:00:45.395Z,35.93
2018-11-22T05:03:13.360Z,40.20
2018-11-22T05:19:00.281Z,34.23
2018-11-22T05:21:27.746Z,29.07
2018-11-22T05:23:55.274Z,51.47
2018-11-22T05:29:02.572Z,53.50
2018-11-22T05:31:30.013Z,35.37
2018-11-22T05:39:17.123Z,36.13
2018-11-22T05:41:44.620Z,31.80
2018-11-22T05:44:12.110Z,44.27
2018-11-22T05:46:39.631Z,40.63
2018-11-22T05:49:08.211Z,46.03
2018-11-22T05:51:36.249Z,36.27
2018-11-22T05:54:04.098Z,40.07
2018-11-22T05:56:31.701Z,35.50
2018-11-22T06:01:58.613Z,31.67
2018-11-22T06:04:26.409Z,56.20
2018-11-22T06:06:53.849Z,37.73
2018-11-22T06:09:21.423Z,24.57
2018-11-22T06:11:49.269Z,37.13
2018-11-22T06:19:36.124Z,36.07
2018-11-22T06:22:03.632Z,34.57
2018-11-22T06:24:31.190Z,39.47
2018-11-22T06:26:58.692Z,49.37
2018-11-22T06:34:45.538Z,35.27
2018-11-22T06:37:13.046Z,43.10
2018-11-22T06:39:40.578Z,43.20
2018-11-22T06:42:08.049Z,51.53
2018-11-22T06:44:35.582Z,36.60
2018-11-22T06:47:04.059Z,40.97
2018-11-22T06:49:31.613Z,31.37
2018-11-22T06:54:46.317Z,31.67
2018-11-22T06:57:13.807Z,32.63
2018-11-22T06:59:41.306Z,41.17
2018-11-22T07:04:56.349Z,41.97
2018-11-22T07:07:24.414Z,29.40
2018-11-22T07:09:52.203Z,30.73
2018-11-22T07:12:19.724Z,29.17
2018-11-22T07:17:53.757Z,28.57
2018-11-22T07:20:22.679Z,31.40
2018-11-22T07:22:51.596Z,25.20
2018-11-22T07:25:20.891Z,31.50
2018-11-22T07:27:48.472Z,22.63
2018-11-22T07:30:20.827Z,14.67
2018-11-22T07:32:48.751Z,36.37
2018-11-22T07:35:18.682Z,28.47
2018-11-22T07:37:46.526Z,28.73
2018-11-22T07:40:17.838Z,28.43
2018-11-22T07:42:50.596Z,23.80
2018-11-22T07:45:15.628Z,36.53
2018-11-22T07:47:43.774Z,38.93
2018-11-22T07:50:13.086Z,36.53
2018-11-22T07:52:40.620Z,31.60
2018-11-22T07:55:09.431Z,40.10
2018-11-22T07:57:37.162Z,35.00
2018-11-22T08:02:52.618Z,29.60
2018-11-22T08:05:21.227Z,44.40
2018-11-22T08:07:51.181Z,50.37
2018-11-22T08:10:19.655Z,41.63
2018-11-22T08:12:48.047Z,36.27
2018-11-22T08:15:34.608Z,41.50
2018-11-22T08:18:02.142Z,34.20
2018-11-22T08:20:29.747Z,44.20
2018-11-22T08:22:58.575Z,34.73
2018-11-22T08:25:27.022Z,33.70
2018-11-22T08:27:55.029Z,34.93
2018-11-22T08:33:10.264Z,33.03
2018-11-22T08:35:38.301Z,36.77
2018-11-22T08:38:05.918Z,63.33
2018-11-22T08:43:20.176Z,42.37
2018-11-22T08:45:47.718Z,31.97
2018-11-22T08:48:15.239Z,44.30
2018-11-22T08:53:22.459Z,48.33
2018-11-22T08:58:29.893Z,48.03
2018-11-22T09:00:57.436Z,29.77
2018-11-22T09:03:25.223Z,47.10
2018-11-22T09:08:32.385Z,36.00
2018-11-22T09:10:59.942Z,41.40
2018-11-22T09:13:47.619Z,47.03
2018-11-22T09:16:15.299Z,39.23
2018-11-22T09:18:42.855Z,39.77
2018-11-22T09:21:10.460Z,40.30
2018-11-22T09:23:38.529Z,45.53
2018-11-22T09:26:05.556Z,42.60
2018-11-22T09:28:33.028Z,41.03
2018-11-22T09:31:00.697Z,51.73
2018-11-22T09:33:28.201Z,35.40
2018-11-22T09:38:35.416Z,22.20
2018-11-22T09:43:42.756Z,46.60
2018-11-22T09:46:10.225Z,49.20
2018-11-22T09:48:37.886Z,39.53
2018-11-22T09:51:05.453Z,50.20
2018-11-22T10:04:21.017Z,37.37
2018-11-22T10:09:28.746Z,33.07
2018-11-22T10:11:56.715Z,30.70
2018-11-22T10:17:10.945Z,28.80
2018-11-22T10:19:40.962Z,38.20
2018-11-22T10:22:08.486Z,48.67
2018-11-22T10:24:38.038Z,43.23
2018-11-22T10:27:26.019Z,38.17
2018-11-22T10:40:45.475Z,33.87
2018-11-22T10:43:13.041Z,40.20
2018-11-22T10:51:06.931Z,41.27
2018-11-22T10:53:34.827Z,48.00
2018-11-22T10:56:02.414Z,45.40
2018-11-22T11:04:07.216Z,36.90
2018-11-22T11:06:53.869Z,39.63
2018-11-22T11:12:01.062Z,36.30
2018-11-22T11:14:28.647Z,34.87
2018-11-22T11:19:43.245Z,33.63
2018-11-22T11:24:57.440Z,30.63
2018-11-22T11:27:26.033Z,52.30
2018-11-22T11:32:34.315Z,40.90
2018-11-22T11:35:01.881Z,50.47
2018-11-22T11:37:29.405Z,47.30
2018-11-22T11:40:00.700Z,31.50
2018-11-22T11:42:25.882Z,39.73
2018-11-22T11:47:33.566Z,35.67
2018-11-22T11:50:01.565Z,33.57
2018-11-22T11:52:29.955Z,42.57
2018-11-22T11:54:58.013Z,38.10
2018-11-22T12:00:44.640Z,40.87
2018-11-22T12:03:12.461Z,23.43
2018-11-22T12:08:27.039Z,30.80
2018-11-22T12:10:54.540Z,40.50
2018-11-22T12:13:22.174Z,29.73
2018-11-22T12:18:16.477Z,36.00
2018-11-22T12:23:30.683Z,29.37
2018-11-22T12:28:45.013Z,33.70
2018-11-22T12:31:12.503Z,35.47
2018-11-22T12:33:39.995Z,33.70
2018-11-22T12:36:26.670Z,32.33
2018-11-22T12:41:33.938Z,38.87
2018-11-22T12:44:01.472Z,32.20
2018-11-22T12:46:28.939Z,51.10
2018-11-22T12:48:56.522Z,65.53
2018-11-22T12:51:24.060Z,42.43
2018-11-22T12:53:51.643Z,62.83
2018-11-22T12:56:38.404Z,57.30
2018-11-22T12:59:06.006Z,55.47
2018-11-22T13:01:33.590Z,48.70
2018-11-22T13:04:01.143Z,58.87
2018-11-22T13:09:15.389Z,56.00
2018-11-22T13:11:47.612Z,49.13
2018-11-22T13:14:10.568Z,54.70
2018-11-22T13:16:38.061Z,59.73
2018-11-22T13:19:05.591Z,58.27
2018-11-22T13:21:33.067Z,55.70
2018-11-22T13:24:00.573Z,59.63
2018-11-22T13:26:28.162Z,43.10
2018-11-22T13:28:56.465Z,54.47
2018-11-22T13:31:24.028Z,50.77
2018-11-22T13:33:51.507Z,49.10
2018-11-22T13:36:19.069Z,55.53
2018-11-22T13:38:47.006Z,48.23
2018-11-22T13:43:54.479Z,42.27
2018-11-22T13:49:02.170Z,52.90
2018-11-22T13:59:28.809Z,41.50
2018-11-22T14:01:56.293Z,55.03
2018-11-22T14:04:23.771Z,48.00
2018-11-22T14:12:13.055Z,33.60
2018-11-22T14:14:40.551Z,35.10
2018-11-22T14:19:48.284Z,37.80
2018-11-22T14:22:15.837Z,36.40
2018-11-22T14:24:46.121Z,26.67
2018-11-22T14:27:13.658Z,38.40
2018-11-22T14:29:41.154Z,41.50
2018-11-22T14:32:08.821Z,33.87
2018-11-22T14:34:36.370Z,42.13
2018-11-22T14:37:04.417Z,42.77
2018-11-22T14:39:31.937Z,42.20
2018-11-22T14:41:59.881Z,39.60
2018-11-22T14:47:07.544Z,41.97
2018-11-22T14:49:35.148Z,36.57
2018-11-22T14:54:49.399Z,38.00
2018-11-22T14:57:16.943Z,42.70
2018-11-22T14:59:44.555Z,34.37
2018-11-22T15:02:12.028Z,39.70
2018-11-22T15:04:41.987Z,29.27
2018-11-22T15:07:09.602Z,28.80
2018-11-22T15:09:37.033Z,32.10
2018-11-22T15:12:04.620Z,21.87
2018-11-22T15:14:32.113Z,35.47
2018-11-22T15:17:01.174Z,40.50
2018-11-22T15:19:28.742Z,37.77
2018-11-22T15:21:56.301Z,32.97
2018-11-22T15:27:11.054Z,34.50
2018-11-22T15:29:37.901Z,20.47
2018-11-22T15:32:05.962Z,28.97
2018-11-22T15:34:33.421Z,50.93
2018-11-22T15:39:40.593Z,38.53
2018-11-22T15:42:08.504Z,45.77
2018-11-22T15:47:22.877Z,52.30
2018-11-22T15:49:50.817Z,41.07
2018-11-22T15:52:18.292Z,41.60
2018-11-22T15:54:45.779Z,37.77
2018-11-22T15:57:13.866Z,41.87
2018-11-22T15:59:40.840Z,66.10
2018-11-22T16:02:08.286Z,40.67
2018-11-22T16:07:15.531Z,33.20
2018-11-22T16:09:43.047Z,33.73
2018-11-22T16:12:10.547Z,35.17
2018-11-22T16:14:37.993Z,40.53
2018-11-22T16:17:05.745Z,37.30
2018-11-22T16:19:33.236Z,36.93
2018-11-22T16:22:00.750Z,27.13
2018-11-22T16:24:28.284Z,43.57
2018-11-22T16:26:56.769Z,46.37
2018-11-22T16:29:24.252Z,40.70
2018-11-22T16:31:51.794Z,38.37
2018-11-22T16:37:06.158Z,43.50
2018-11-22T16:39:33.602Z,28.27
2018-11-22T16:42:01.070Z,36.37
2018-11-22T16:44:28.588Z,35.43
2018-11-22T16:52:22.573Z,25.47
2018-11-22T16:54:50.256Z,36.00
2018-11-22T17:00:06.140Z,31.70
2018-11-22T17:02:35.879Z,32.67
2018-11-22T17:10:25.202Z,32.57
2018-11-22T17:15:44.238Z,23.33
2018-11-22T17:20:58.785Z,42.47
2018-11-22T17:23:26.328Z,41.50
2018-11-22T17:25:53.822Z,37.37
2018-11-22T17:31:08.511Z,30.17
2018-11-22T17:33:36.070Z,39.73
2018-11-22T17:36:03.729Z,37.00
2018-11-22T17:41:25.315Z,41.00
2018-11-22T17:46:39.528Z,22.17
2018-11-22T17:49:07.442Z,16.07
2018-11-22T17:54:14.640Z,29.97
2018-11-22T17:56:42.146Z,40.10
2018-11-22T17:59:09.689Z,33.10
2018-11-22T18:01:37.180Z,31.17
2018-11-22T18:04:23.954Z,32.93
2018-11-22T18:12:11.279Z,36.67
2018-11-22T18:14:38.747Z,35.20
2018-11-22T18:19:46.007Z,24.37
2018-11-22T18:22:13.587Z,44.10
2018-11-22T18:24:41.088Z,23.03
2018-11-22T18:29:48.314Z,45.05
2018-11-22T18:32:16.003Z,42.07
2018-11-22T18:37:30.251Z,41.13
2018-11-22T18:39:57.768Z,32.37
2018-11-22T18:45:06.331Z,25.23
2018-11-22T18:47:33.869Z,24.87
2018-11-22T18:52:48.394Z,37.07
2018-11-22T18:58:02.743Z,40.75
2018-11-22T19:03:19.063Z,33.33
2018-11-22T19:13:58.623Z,44.93
2018-11-22T19:16:26.178Z,44.17
2018-11-22T19:18:53.766Z,42.00
2018-11-22T19:26:48.212Z,48.27
2018-11-22T19:29:15.813Z,35.90
2018-11-22T19:31:44.411Z,33.43
2018-11-22T19:34:15.244Z,40.23
2018-11-22T19:36:42.844Z,35.57
2018-11-22T19:39:10.345Z,34.23
2018-11-22T19:41:37.987Z,45.13
2018-11-22T19:44:08.282Z,31.70
2018-11-22T19:49:15.624Z,34.40
2018-11-22T19:54:22.986Z,41.70
2018-11-22T19:56:50.529Z,29.10
2018-11-22T20:04:44.920Z,38.20
2018-11-22T20:09:52.734Z,33.63
2018-11-22T20:12:20.270Z,44.20
2018-11-22T20:17:34.622Z,29.97
2018-11-22T20:20:02.334Z,27.00
2018-11-22T20:22:29.883Z,35.73
2018-11-22T20:24:57.408Z,33.57
2018-11-22T20:27:24.940Z,33.47
2018-11-22T20:29:52.438Z,24.57
2018-11-22T20:37:39.628Z,41.35
2018-11-22T20:40:07.793Z,27.13
2018-11-22T20:42:35.375Z,39.90
2018-11-22T20:45:02.870Z,39.40
2018-11-22T20:47:30.519Z,39.10
2018-11-22T20:49:58.156Z,32.43
2018-11-22T20:55:15.100Z,35.87
2018-11-22T20:57:43.023Z,34.30
2018-11-22T21:02:58.549Z,33.23
2018-11-22T21:08:13.565Z,37.87
2018-11-22T21:10:41.223Z,28.70
2018-11-22T21:13:08.786Z,48.47
2018-11-22T21:15:36.905Z,36.17
2018-11-22T21:18:06.005Z,37.37
2018-11-22T21:20:36.329Z,33.20
2018-11-22T21:23:04.090Z,32.23
2018-11-22T21:28:11.999Z,33.40
2018-11-22T21:30:40.202Z,17.67
2018-11-22T21:33:07.917Z,33.33
2018-11-22T21:40:56.258Z,26.03
2018-11-22T21:51:30.183Z,32.43
2018-11-22T21:56:44.555Z,40.50
2018-11-22T22:01:58.783Z,33.07
2018-11-22T22:07:13.004Z,22.97
2018-11-22T22:09:40.746Z,30.60
2018-11-22T22:12:08.368Z,21.33
2018-11-22T22:14:35.919Z,34.80
2018-11-22T22:19:43.090Z,32.27
2018-11-22T22:24:50.721Z,33.80
2018-11-22T22:29:58.964Z,28.43
2018-11-22T22:35:10.501Z,32.07
2018-11-22T22:37:38.406Z,39.70
2018-11-22T22:42:54.931Z,25.27
2018-11-22T22:45:23.587Z,31.30
2018-11-22T22:47:51.701Z,26.70
2018-11-22T22:50:20.528Z,31.00
2018-11-22T22:52:49.224Z,34.83
2018-11-22T22:55:16.742Z,30.20
2018-11-22T23:00:50.426Z,24.93
2018-11-22T23:05:57.619Z,42.33
2018-11-22T23:08:25.129Z,30.07
2018-11-22T23:10:52.685Z,35.23
2018-11-22T23:13:20.189Z,42.03
2018-11-22T23:15:47.741Z,42.57
2018-11-22T23:21:01.953Z,19.60
2018-11-22T23:23:30.705Z,30.17
2018-11-22T23:25:58.253Z,44.97
2018-11-22T23:28:25.722Z,30.97
2018-11-22T23:30:53.244Z,38.57
2018-11-22T23:33:20.739Z,37.33
2018-11-22T23:43:47.880Z,41.13
2018-11-22T23:46:15.454Z,35.50
2018-11-22T23:48:43.000Z,35.47
2018-11-22T23:51:10.544Z,44.70
2018-11-22T23:53:49.288Z,41.87
2018-11-22T23:56:16.823Z,30.70
2018-11-22T23:58:44.344Z,29.73
